Cleveland, OH (44133)

12:33 AM EDT on September 02, 2014 (GMT -0400)
Mill Stream Run Reservation (I-71 Parcel) | Change Station
CLOSE
Current Station
Personal Weather Station
Location: Strongsville, OH
Elevation: 955 ft
Nearby Weather Stations

Elev 955 ft 41.30 °N, 81.79 °W | Updated 2 minutes ago

Partly Cloudy
Partly Cloudy
77.9 °F
Feels Like 80 °F
N
0.0
Wind Variable Wind from SSW
Gusts 0.0 mph

Today
High -- | Low -- °F
--% Chance of Precip.
Yesterday
High -- | Low -- °F
Precip. -- in
6:54 AM 7:58 PM
Waxing Crescent, 47% visible
Pressure 29.89 in
Visibility 10.0 miles
Clouds Scattered Clouds 4900 ft
Scattered Clouds 7500 ft
Mostly Cloudy 25000 ft
Heat Index 80 °F
Dew Point 74 °F
Humidity 89%
Rainfall 0.00 in
Snow Depth Not available.
UV 0 out of 12
Pollen 9.50 out of 12
Ozone Good
PM2.5 Moderate
Flu Activity Not available.
METAR KCLE 020351Z 20009KT 10SM SCT049 SCT075 BKN250 24/21 A2991 RMK AO2 SLP122 T02440206

More Conditions Fewer Conditions

Pressure 29.89 in
Visibility 10.0 miles
Clouds Scattered Clouds 4900 ft
Scattered Clouds 7500 ft
Mostly Cloudy 25000 ft
Heat Index 80 °F
Dew Point 74 °F
Humidity 89%
Rainfall 0.00 in
Snow Depth Not available.
UV 0 out of 12
Pollen 9.50 out of 12
Ozone Good
PM2.5 Moderate
Flu Activity Not available.
METAR KCLE 020351Z 20009KT 10SM SCT049 SCT075 BKN250 24/21 A2991 RMK AO2 SLP122 T02440206

More Conditions Fewer Conditions

10-Day Weather Forecast

Almanac

Astronomy

Sep. 02, 2014 Rise Set
Actual Time 6:54 AM EDT 7:58 PM EDT
Civil Twilight 6:25 AM EDT 8:26 PM EDT
Nautical Twilight 5:52 AM EDT 9:00 PM EDT
Astronomical Twilight 5:16 AM EDT 9:35 PM EDT
Moon 2:41 PM EDT No Moon Set
Length of Visible Light 14h 00m
Length of Day
13h 03m
Tomorrow will be 2m 40s shorter.
Waxing Crescent, 47% of the Moon is Illuminated
Today
Waxing Crescent
Sep 2
First Quarter
Sep 8
Full
Sep 15
Last Quarter
Sep 24
New

Yesterday's Extremes

State Highs State Lows

Community

WunderPhotos

Upload Photos

1,749,566 photos uploaded!

WunderBlogs® & News

Nearby

Air Quality

  Air Quality AQ Index Pollutant
Yesterday Good
PM10
Yesterday Good
OZONE
Current Moderate
PM2.5
Current Good
OZONE
Monday Moderate
PM2.5
Monday Good
OZONE
Tuesday Moderate
PM2.5
Tuesday Good
OZONE
Wednesday Moderate
PM2.5
Wednesday Good
OZONE
Thursday Moderate
PM2.5
Thursday Good
OZONE

Snow Depth

Station Depth Elevation
No new snow has been reported.

Earthquake Activity

City Distance Mag. Time & Date
No recent earthquake activity has been reported nearby.
Minimum magnitude displayed is 2.5.

Coastal Water Temperatures

Place Temperature
Cleveland, OH 72.0 °F
Fairport, OH 73.9 °F

Nearby Weather Stations